Time;durP1;ratioP1;P1;durP2;ratioP2;P2;SDS_P1;SDS_P2;PMS_P1;PMS_P2;Temp;Humidity;BMP_temperature;BMP_pressure;BME280_temperature;BME280_humidity;BME280_pressure;Samples;Min_cycle;Max_cycle;Signal;HPM_P1;HPM_P2
2021/01/08 00:01:59;;;;;;;53.03;24.70;;;;;;;;;;5112587;28;20471;-70
2021/01/08 00:04:25;;;;;;;37.90;21.90;;;;;;;;;;5098973;28;20452;-70
2021/01/08 00:06:56;;;;;;;46.57;25.20;;;;;;;;;;5103754;28;20473;-70
2021/01/08 00:09:22;;;;;;;54.43;23.03;;;;;;;;;;5115240;27;20481;-70
2021/01/08 00:11:54;;;;;;;45.87;24.13;;;;;;;;;;5113789;27;20453;-69
2021/01/08 00:14:20;;;;;;;43.70;23.07;;;;;;;;;;5111747;28;20475;-70
2021/01/08 00:16:47;;;;;;;40.07;21.87;;;;;;;;;;5106044;28;20474;-70
2021/01/08 00:19:14;;;;;;;42.33;21.70;;;;;;;;;;5109907;28;21058;-70
2021/01/08 00:21:43;;;;;;;36.50;20.93;;;;;;;;;;5114345;27;20474;-70
2021/01/08 00:24:10;;;;;;;39.13;21.40;;;;;;;;;;5116522;28;20468;-71
2021/01/08 00:26:36;;;;;;;41.63;21.07;;;;;;;;;;5118490;28;20980;-70
2021/01/08 00:29:03;;;;;;;48.93;24.60;;;;;;;;;;5111794;27;20465;-70
2021/01/08 00:31:35;;;;;;;43.13;23.03;;;;;;;;;;5094888;28;20460;-70
2021/01/08 00:34:02;;;;;;;40.70;21.33;;;;;;;;;;5109159;27;20822;-70
2021/01/08 00:36:29;;;;;;;45.17;20.60;;;;;;;;;;5116727;27;20516;-71
2021/01/08 00:38:56;;;;;;;40.43;21.17;;;;;;;;;;5114782;27;20479;-70
2021/01/08 00:41:28;;;;;;;42.20;22.00;;;;;;;;;;5110682;27;20845;-71
2021/01/08 00:43:54;;;;;;;43.37;23.37;;;;;;;;;;5114709;27;20455;-71
2021/01/08 00:46:21;;;;;;;45.17;21.93;;;;;;;;;;5113730;27;20454;-70
2021/01/08 00:48:48;;;;;;;43.57;22.13;;;;;;;;;;5106832;28;20482;-70
2021/01/08 00:51:14;;;;;;;45.97;22.37;;;;;;;;;;5115824;27;20434;-71
2021/01/08 00:53:42;;;;;;;40.80;21.77;;;;;;;;;;5108377;27;20459;-70
2021/01/08 00:56:17;;;;;;;45.30;23.00;;;;;;;;;;5118462;27;20466;-70
2021/01/08 00:58:43;;;;;;;41.27;20.90;;;;;;;;;;5114006;27;21140;-70
2021/01/08 01:01:10;;;;;;;43.93;23.73;;;;;;;;;;5112837;27;20474;-70
2021/01/08 01:03:36;;;;;;;35.37;21.37;;;;;;;;;;5111488;27;20440;-71
2021/01/08 01:06:03;;;;;;;42.70;21.37;;;;;;;;;;5111774;28;20443;-70
2021/01/08 01:08:30;;;;;;;38.43;21.80;;;;;;;;;;5108075;27;20890;-71
2021/01/08 01:10:57;;;;;;;44.57;22.17;;;;;;;;;;5115708;27;20447;-70
2021/01/08 01:13:24;;;;;;;39.67;22.20;;;;;;;;;;5119665;27;20447;-71
2021/01/08 01:15:50;;;;;;;46.80;25.30;;;;;;;;;;5111644;27;20958;-71
2021/01/08 01:18:17;;;;;;;42.77;20.87;;;;;;;;;;5112139;28;20470;-71
2021/01/08 01:20:44;;;;;;;46.57;25.03;;;;;;;;;;5109372;27;20475;-70
2021/01/08 01:23:10;;;;;;;42.43;21.60;;;;;;;;;;5117243;27;20445;-71
2021/01/08 01:25:37;;;;;;;38.83;21.10;;;;;;;;;;5120224;27;20806;-71
2021/01/08 01:28:04;;;;;;;43.90;22.13;;;;;;;;;;5111187;28;20472;-71
2021/01/08 01:30:32;;;;;;;48.40;25.70;;;;;;;;;;5112072;27;20451;-71
2021/01/08 01:32:58;;;;;;;38.67;20.27;;;;;;;;;;5108841;27;20465;-71
2021/01/08 01:35:25;;;;;;;42.07;21.60;;;;;;;;;;5106823;27;20447;-71
2021/01/08 01:37:52;;;;;;;44.80;23.53;;;;;;;;;;5111559;27;20528;-71
2021/01/08 01:40:18;;;;;;;39.47;21.30;;;;;;;;;;5118477;27;20482;-71
2021/01/08 01:42:45;;;;;;;43.57;23.13;;;;;;;;;;5109556;27;20459;-71
2021/01/08 01:45:13;;;;;;;43.83;21.73;;;;;;;;;;5104690;28;20463;-71
2021/01/08 01:47:40;;;;;;;44.83;24.07;;;;;;;;;;5117927;27;20472;-71
2021/01/08 01:50:08;;;;;;;45.97;21.20;;;;;;;;;;5111905;28;20451;-71
2021/01/08 01:52:35;;;;;;;41.73;22.53;;;;;;;;;;5105377;27;21029;-71
2021/01/08 01:55:02;;;;;;;37.47;19.50;;;;;;;;;;5126607;27;20450;-71
2021/01/08 01:57:28;;;;;;;42.70;20.63;;;;;;;;;;5122128;27;20466;-71
2021/01/08 01:59:55;;;;;;;38.50;20.07;;;;;;;;;;5111865;27;20463;-71
2021/01/08 02:02:24;;;;;;;37.33;21.30;;;;;;;;;;5113414;27;20483;-71
2021/01/08 02:04:51;;;;;;;41.50;21.00;;;;;;;;;;5114457;27;20454;-71
2021/01/08 02:07:18;;;;;;;37.00;19.27;;;;;;;;;;5113510;27;20731;-71
2021/01/08 02:09:46;;;;;;;37.03;19.20;;;;;;;;;;5116461;27;20450;-71
2021/01/08 02:12:13;;;;;;;35.30;19.13;;;;;;;;;;5110094;27;21011;-71
2021/01/08 02:14:42;;;;;;;39.77;19.83;;;;;;;;;;5113154;27;20459;-71
2021/01/08 02:17:09;;;;;;;42.63;20.30;;;;;;;;;;5120256;27;20462;-71
2021/01/08 02:19:39;;;;;;;46.57;21.63;;;;;;;;;;5123760;27;20442;-71
2021/01/08 02:22:09;;;;;;;36.90;20.87;;;;;;;;;;5108777;27;20477;-71
2021/01/08 02:24:39;;;;;;;32.40;19.60;;;;;;;;;;5114393;27;20827;-71
2021/01/08 02:27:06;;;;;;;40.63;21.03;;;;;;;;;;5107917;27;20501;-71
2021/01/08 02:29:33;;;;;;;34.23;19.37;;;;;;;;;;5100878;28;20447;-71
2021/01/08 02:32:00;;;;;;;43.47;23.60;;;;;;;;;;5112754;27;20486;-71
2021/01/08 02:34:27;;;;;;;33.83;18.70;;;;;;;;;;5113086;27;20451;-71
2021/01/08 02:36:54;;;;;;;39.17;21.03;;;;;;;;;;5108380;27;20467;-71
2021/01/08 02:39:21;;;;;;;44.47;21.67;;;;;;;;;;5102360;27;20455;-71
2021/01/08 02:41:48;;;;;;;42.07;20.30;;;;;;;;;;5110149;27;20475;-71
2021/01/08 02:44:16;;;;;;;38.23;19.80;;;;;;;;;;5104764;27;20832;-71
2021/01/08 02:46:43;;;;;;;32.13;19.80;;;;;;;;;;5107325;27;21105;-71
2021/01/08 02:49:10;;;;;;;35.07;19.17;;;;;;;;;;5105326;27;20459;-71
2021/01/08 02:51:36;;;;;;;46.90;20.07;;;;;;;;;;5110918;27;20447;-71
2021/01/08 02:54:04;;;;;;;36.37;17.87;;;;;;;;;;5102732;28;20466;-71
2021/01/08 02:56:33;;;;;;;35.83;19.13;;;;;;;;;;5106949;27;20864;-71
2021/01/08 02:59:00;;;;;;;41.00;20.43;;;;;;;;;;5104776;28;20498;-71
2021/01/08 03:01:28;;;;;;;41.57;20.53;;;;;;;;;;5105079;27;20863;-71
2021/01/08 03:03:58;;;;;;;33.57;16.60;;;;;;;;;;5111154;27;20448;-71
2021/01/08 03:06:26;;;;;;;41.90;20.43;;;;;;;;;;5102575;28;20451;-71
2021/01/08 03:08:52;;;;;;;36.40;19.37;;;;;;;;;;5112313;27;20828;-71
2021/01/08 03:11:19;;;;;;;36.03;18.73;;;;;;;;;;5111284;27;20442;-71
2021/01/08 03:13:46;;;;;;;40.87;22.07;;;;;;;;;;5108836;27;20470;-71
2021/01/08 03:16:13;;;;;;;30.07;17.40;;;;;;;;;;5102409;28;20443;-71
2021/01/08 03:18:41;;;;;;;38.07;19.83;;;;;;;;;;5108600;28;20915;-71
2021/01/08 03:21:07;;;;;;;32.33;20.10;;;;;;;;;;5115402;27;20478;-71
2021/01/08 03:23:34;;;;;;;31.13;17.90;;;;;;;;;;5109432;28;20537;-71
2021/01/08 03:26:00;;;;;;;33.03;17.60;;;;;;;;;;5109292;27;20481;-71
2021/01/08 03:28:27;;;;;;;35.20;19.40;;;;;;;;;;5109634;28;20881;-71
2021/01/08 03:30:53;;;;;;;32.60;18.57;;;;;;;;;;5095292;28;20439;-71
2021/01/08 03:33:20;;;;;;;35.57;19.30;;;;;;;;;;5107576;28;20455;-71
2021/01/08 03:35:48;;;;;;;33.90;18.60;;;;;;;;;;5103251;28;20468;-71
2021/01/08 03:38:14;;;;;;;32.83;18.70;;;;;;;;;;5109528;28;21025;-71
2021/01/08 03:40:41;;;;;;;36.77;18.80;;;;;;;;;;5106003;28;20475;-71
2021/01/08 03:43:08;;;;;;;31.47;17.67;;;;;;;;;;5107120;28;20496;-72
2021/01/08 03:45:34;;;;;;;34.63;18.20;;;;;;;;;;5113683;28;20877;-70
2021/01/08 03:48:01;;;;;;;34.60;17.90;;;;;;;;;;5100851;28;20504;-70
2021/01/08 03:50:28;;;;;;;34.00;19.10;;;;;;;;;;5107794;28;20935;-70
2021/01/08 03:52:55;;;;;;;36.57;21.80;;;;;;;;;;5100794;28;20459;-70
2021/01/08 03:55:22;;;;;;;38.67;19.80;;;;;;;;;;5107499;28;20439;-70
2021/01/08 03:57:48;;;;;;;30.17;16.90;;;;;;;;;;5110862;28;20477;-70
2021/01/08 04:00:15;;;;;;;32.67;17.50;;;;;;;;;;5115868;28;20452;-71
2021/01/08 04:02:42;;;;;;;35.77;18.73;;;;;;;;;;5109757;28;20462;-71
2021/01/08 04:05:09;;;;;;;30.10;17.40;;;;;;;;;;5114748;28;20451;-70
2021/01/08 04:07:35;;;;;;;28.73;17.20;;;;;;;;;;5102955;28;20490;-70
2021/01/08 04:10:03;;;;;;;31.03;15.90;;;;;;;;;;5105923;28;20450;-70
2021/01/08 04:12:30;;;;;;;35.97;17.40;;;;;;;;;;5116075;27;20824;-71
2021/01/08 04:14:56;;;;;;;34.10;17.90;;;;;;;;;;5106816;28;20439;-71
2021/01/08 04:17:23;;;;;;;38.40;18.10;;;;;;;;;;5107783;27;20479;-71
2021/01/08 04:19:50;;;;;;;30.13;16.83;;;;;;;;;;5112889;27;20525;-71
2021/01/08 04:22:16;;;;;;;26.07;16.07;;;;;;;;;;5106444;27;20506;-71
2021/01/08 04:24:43;;;;;;;31.13;17.33;;;;;;;;;;5101789;28;20450;-71
2021/01/08 04:27:10;;;;;;;34.67;15.93;;;;;;;;;;5111584;27;20470;-71
2021/01/08 04:29:37;;;;;;;32.17;18.17;;;;;;;;;;5113734;27;20439;-71
2021/01/08 04:32:03;;;;;;;33.70;18.50;;;;;;;;;;5101762;27;20455;-71
2021/01/08 04:34:30;;;;;;;31.50;17.37;;;;;;;;;;5109967;27;20829;-71
2021/01/08 04:36:57;;;;;;;31.27;16.97;;;;;;;;;;5112580;27;20459;-71
2021/01/08 04:39:23;;;;;;;37.00;17.60;;;;;;;;;;5117550;27;20456;-71
2021/01/08 04:41:50;;;;;;;30.43;16.43;;;;;;;;;;5111668;27;21274;-71
2021/01/08 04:44:19;;;;;;;28.27;15.93;;;;;;;;;;5109722;27;20947;-70
2021/01/08 04:46:47;;;;;;;34.57;17.50;;;;;;;;;;5107017;27;20481;-70
2021/01/08 04:49:15;;;;;;;32.90;18.80;;;;;;;;;;5115580;27;20462;-71
2021/01/08 04:51:44;;;;;;;33.23;17.00;;;;;;;;;;5110057;27;20811;-70
2021/01/08 04:54:11;;;;;;;30.90;17.20;;;;;;;;;;5117427;27;20451;-70
2021/01/08 04:56:38;;;;;;;33.07;18.30;;;;;;;;;;5111648;27;22103;-70
2021/01/08 04:59:05;;;;;;;28.77;17.60;;;;;;;;;;5113573;27;21297;-70
2021/01/08 05:01:32;;;;;;;37.70;18.07;;;;;;;;;;5104244;27;20529;-70
2021/01/08 05:03:59;;;;;;;36.77;18.90;;;;;;;;;;5115975;27;20451;-70
2021/01/08 05:06:25;;;;;;;34.80;18.20;;;;;;;;;;5102916;28;20963;-70
2021/01/08 05:08:52;;;;;;;36.17;19.40;;;;;;;;;;5120012;27;20467;-70
2021/01/08 05:11:22;;;;;;;31.80;16.90;;;;;;;;;;5116550;27;20439;-70
2021/01/08 05:13:56;;;;;;;36.30;18.80;;;;;;;;;;5107465;27;21112;-70
2021/01/08 05:16:23;;;;;;;32.80;17.83;;;;;;;;;;5115157;27;20466;-70
2021/01/08 05:18:51;;;;;;;28.87;14.93;;;;;;;;;;5115801;27;20479;-70
2021/01/08 05:21:18;;;;;;;34.57;16.70;;;;;;;;;;5111501;27;20487;-70
2021/01/08 05:23:45;;;;;;;29.90;16.40;;;;;;;;;;5118759;27;20442;-70
2021/01/08 05:26:12;;;;;;;33.13;17.03;;;;;;;;;;5115396;27;20512;-70
2021/01/08 05:28:39;;;;;;;32.00;17.47;;;;;;;;;;5108446;27;20838;-70
2021/01/08 05:31:07;;;;;;;36.40;18.10;;;;;;;;;;5106547;28;20491;-70
2021/01/08 05:33:34;;;;;;;35.50;17.90;;;;;;;;;;5107105;28;20470;-70
2021/01/08 05:36:02;;;;;;;31.73;17.50;;;;;;;;;;5103236;27;20477;-70
2021/01/08 05:38:30;;;;;;;34.33;16.23;;;;;;;;;;5102455;28;21063;-70
2021/01/08 05:41:02;;;;;;;28.33;16.70;;;;;;;;;;5112182;27;20536;-70
2021/01/08 05:43:29;;;;;;;35.90;17.40;;;;;;;;;;5112385;27;20878;-70
2021/01/08 05:46:07;;;;;;;30.17;18.43;;;;;;;;;;5109366;27;20505;-70
2021/01/08 05:48:34;;;;;;;38.17;18.20;;;;;;;;;;5115995;27;20463;-70
2021/01/08 05:51:02;;;;;;;31.43;17.13;;;;;;;;;;5108102;27;20451;-70
2021/01/08 05:53:28;;;;;;;30.23;15.67;;;;;;;;;;5108670;27;20444;-70
2021/01/08 05:55:55;;;;;;;34.10;16.83;;;;;;;;;;5106750;28;20489;-70
2021/01/08 05:58:22;;;;;;;29.93;16.40;;;;;;;;;;5110142;27;20993;-70
2021/01/08 06:00:58;;;;;;;31.77;17.00;;;;;;;;;;5103363;27;20475;-71
2021/01/08 06:03:25;;;;;;;37.17;18.67;;;;;;;;;;5118759;27;20452;-71
2021/01/08 06:05:53;;;;;;;32.90;17.30;;;;;;;;;;5118354;27;20443;-71
2021/01/08 06:08:22;;;;;;;33.63;17.70;;;;;;;;;;5115107;27;20458;-70
2021/01/08 06:10:52;;;;;;;36.53;18.10;;;;;;;;;;5109668;27;20546;-70
2021/01/08 06:13:19;;;;;;;30.47;16.87;;;;;;;;;;5107772;28;20497;-71
2021/01/08 06:15:46;;;;;;;34.93;19.00;;;;;;;;;;5109069;27;20444;-71
2021/01/08 06:18:13;;;;;;;32.67;17.40;;;;;;;;;;5105440;27;20473;-71
2021/01/08 06:20:40;;;;;;;31.27;17.70;;;;;;;;;;5112223;27;20506;-70
2021/01/08 06:23:07;;;;;;;31.83;15.93;;;;;;;;;;5113862;27;20451;-70
2021/01/08 06:25:35;;;;;;;29.93;17.37;;;;;;;;;;5109367;27;21708;-71
2021/01/08 06:28:04;;;;;;;27.03;15.87;;;;;;;;;;5106535;28;20462;-71
2021/01/08 06:30:34;;;;;;;32.30;16.57;;;;;;;;;;5107952;28;20450;-71
2021/01/08 06:33:04;;;;;;;28.73;15.23;;;;;;;;;;5105527;27;20455;-71
2021/01/08 06:35:31;;;;;;;28.77;14.33;;;;;;;;;;5102630;27;20444;-71
2021/01/08 06:37:59;;;;;;;28.30;15.40;;;;;;;;;;5106669;27;20490;-71
2021/01/08 06:40:31;;;;;;;28.10;13.63;;;;;;;;;;5098628;27;20686;-71
2021/01/08 06:43:03;;;;;;;24.93;13.70;;;;;;;;;;5108923;28;21179;-71
2021/01/08 06:45:31;;;;;;;23.87;12.83;;;;;;;;;;5109351;28;21194;-71
2021/01/08 06:48:02;;;;;;;25.20;13.37;;;;;;;;;;5107461;27;20488;-71
2021/01/08 06:50:29;;;;;;;33.33;13.73;;;;;;;;;;5109520;27;20451;-72
2021/01/08 06:52:58;;;;;;;22.83;13.30;;;;;;;;;;5112503;27;20439;-71
2021/01/08 06:55:25;;;;;;;30.33;15.23;;;;;;;;;;5107663;28;20443;-72
2021/01/08 06:57:55;;;;;;;28.10;15.67;;;;;;;;;;5121191;27;20469;-71
2021/01/08 07:00:23;;;;;;;32.50;15.53;;;;;;;;;;5101662;27;20522;-71
2021/01/08 07:02:54;;;;;;;26.90;14.47;;;;;;;;;;5110213;28;20475;-71
2021/01/08 07:05:21;;;;;;;28.43;15.23;;;;;;;;;;5110928;27;20443;-71
2021/01/08 07:07:49;;;;;;;33.43;16.80;;;;;;;;;;5106150;28;21043;-71
2021/01/08 07:10:18;;;;;;;29.20;15.50;;;;;;;;;;5101182;28;20451;-71
2021/01/08 07:12:45;;;;;;;26.10;14.60;;;;;;;;;;5111966;28;21179;-71
2021/01/08 07:15:12;;;;;;;27.37;15.47;;;;;;;;;;5113636;27;20451;-71
2021/01/08 07:17:40;;;;;;;28.10;14.80;;;;;;;;;;5106868;27;20512;-71
2021/01/08 07:20:08;;;;;;;28.73;15.70;;;;;;;;;;5113925;27;20514;-71
2021/01/08 07:22:37;;;;;;;27.87;15.03;;;;;;;;;;5122452;27;20482;-71
2021/01/08 07:25:05;;;;;;;28.93;15.50;;;;;;;;;;5100486;28;20955;-71
2021/01/08 07:27:32;;;;;;;31.80;16.33;;;;;;;;;;5107604;28;21041;-71
2021/01/08 07:30:00;;;;;;;30.27;17.07;;;;;;;;;;5107933;28;20474;-70
2021/01/08 07:32:37;;;;;;;24.40;14.67;;;;;;;;;;5093572;27;20456;-70
2021/01/08 07:35:17;;;;;;;29.63;14.43;;;;;;;;;;5111703;27;20946;-71
2021/01/08 07:38:03;;;;;;;26.70;15.57;;;;;;;;;;5109206;27;20494;-70
2021/01/08 07:40:31;;;;;;;29.97;15.83;;;;;;;;;;5107521;28;21200;-71
2021/01/08 07:42:59;;;;;;;29.40;16.50;;;;;;;;;;5107599;28;20541;-70
2021/01/08 07:45:40;;;;;;;31.50;17.90;;;;;;;;;;5108529;27;20463;-70
2021/01/08 07:48:16;;;;;;;33.67;16.80;;;;;;;;;;5103068;27;20506;-70
2021/01/08 07:50:51;;;;;;;34.67;16.70;;;;;;;;;;5113647;27;20442;-71
2021/01/08 07:53:33;;;;;;;35.53;16.80;;;;;;;;;;5112478;27;21194;-70
2021/01/08 07:56:04;;;;;;;28.13;16.20;;;;;;;;;;5106263;27;20446;-71
2021/01/08 07:58:31;;;;;;;30.60;16.50;;;;;;;;;;5110962;27;20490;-71
2021/01/08 08:00:58;;;;;;;33.50;16.17;;;;;;;;;;5107858;28;20474;-71
2021/01/08 08:03:25;;;;;;;39.30;18.03;;;;;;;;;;5104967;27;20462;-70
2021/01/08 08:05:53;;;;;;;28.50;16.93;;;;;;;;;;5111661;27;20451;-70
2021/01/08 08:08:20;;;;;;;31.83;16.20;;;;;;;;;;5112120;27;20467;-70
2021/01/08 08:10:46;;;;;;;30.47;16.00;;;;;;;;;;5112886;27;20463;-69
2021/01/08 08:13:13;;;;;;;29.93;17.57;;;;;;;;;;5111283;27;20454;-69
2021/01/08 08:15:46;;;;;;;31.70;17.63;;;;;;;;;;5111104;27;20488;-69
2021/01/08 08:18:13;;;;;;;30.03;16.63;;;;;;;;;;5114097;27;20463;-69
2021/01/08 08:20:39;;;;;;;26.67;15.37;;;;;;;;;;5109144;27;20462;-68
2021/01/08 08:23:14;;;;;;;33.27;16.70;;;;;;;;;;5114070;27;20534;-69
2021/01/08 08:25:41;;;;;;;31.17;17.53;;;;;;;;;;5110333;27;20950;-69
2021/01/08 08:28:08;;;;;;;31.47;16.63;;;;;;;;;;5118034;27;20902;-69
2021/01/08 08:30:35;;;;;;;29.33;16.30;;;;;;;;;;5111083;27;20484;-68
2021/01/08 08:33:04;;;;;;;31.90;18.13;;;;;;;;;;5115151;27;20446;-69
2021/01/08 08:35:32;;;;;;;29.37;14.50;;;;;;;;;;5107822;27;20477;-68
2021/01/08 08:37:59;;;;;;;33.27;19.30;;;;;;;;;;5114335;27;20479;-69
2021/01/08 08:40:28;;;;;;;28.87;16.87;;;;;;;;;;5113709;27;20462;-69
2021/01/08 08:42:55;;;;;;;29.83;17.57;;;;;;;;;;5114420;27;20474;-69
2021/01/08 08:45:23;;;;;;;33.97;19.60;;;;;;;;;;5114087;27;20463;-68
2021/01/08 08:47:50;;;;;;;32.20;18.00;;;;;;;;;;5111047;27;20471;-68
2021/01/08 08:50:17;;;;;;;29.50;16.30;;;;;;;;;;5111528;27;20454;-68
2021/01/08 08:52:44;;;;;;;35.17;17.30;;;;;;;;;;5108172;27;20457;-69
2021/01/08 08:55:25;;;;;;;34.77;17.90;;;;;;;;;;5110563;27;20955;-68
2021/01/08 08:57:52;;;;;;;31.33;17.40;;;;;;;;;;5109445;28;20487;-68
2021/01/08 09:00:20;;;;;;;37.43;18.27;;;;;;;;;;5106515;27;20458;-68
2021/01/08 09:02:47;;;;;;;33.50;18.70;;;;;;;;;;5103912;27;20475;-69
2021/01/08 09:05:13;;;;;;;28.90;17.63;;;;;;;;;;5119207;27;20962;-69
2021/01/08 09:07:43;;;;;;;30.70;18.97;;;;;;;;;;5111438;27;20884;-68
2021/01/08 09:10:14;;;;;;;27.57;16.37;;;;;;;;;;5109089;27;20482;-68
2021/01/08 09:12:42;;;;;;;34.83;17.83;;;;;;;;;;5102997;27;20451;-68
2021/01/08 09:15:15;;;;;;;32.80;18.43;;;;;;;;;;5110894;27;20451;-68
2021/01/08 09:17:43;;;;;;;36.33;18.70;;;;;;;;;;5102234;27;20474;-68
2021/01/08 09:20:14;;;;;;;30.63;18.27;;;;;;;;;;5105562;27;20935;-69
2021/01/08 09:22:42;;;;;;;34.53;18.70;;;;;;;;;;5108305;27;20489;-68
2021/01/08 09:25:09;;;;;;;34.27;18.90;;;;;;;;;;5111010;28;20987;-69
2021/01/08 09:27:36;;;;;;;29.97;17.43;;;;;;;;;;5106664;28;20483;-68
2021/01/08 09:30:10;;;;;;;33.77;19.80;;;;;;;;;;5122730;27;20434;-68
2021/01/08 09:32:38;;;;;;;33.20;18.63;;;;;;;;;;5106357;27;20958;-68
2021/01/08 09:35:08;;;;;;;32.97;18.10;;;;;;;;;;5109865;27;20525;-68
2021/01/08 09:37:38;;;;;;;34.53;19.27;;;;;;;;;;5105048;27;20490;-68
2021/01/08 09:40:12;;;;;;;39.40;20.50;;;;;;;;;;5114144;27;20457;-68
2021/01/08 09:42:38;;;;;;;33.33;18.87;;;;;;;;;;5105547;27;20483;-67
2021/01/08 09:45:21;;;;;;;30.97;18.23;;;;;;;;;;5115354;27;20452;-68
2021/01/08 09:47:49;;;;;;;32.30;18.57;;;;;;;;;;5103069;27;20472;-67
2021/01/08 09:50:25;;;;;;;27.17;17.77;;;;;;;;;;5107839;27;20458;-67
2021/01/08 09:52:52;;;;;;;30.10;17.60;;;;;;;;;;5105766;27;20845;-68
2021/01/08 09:55:25;;;;;;;32.13;18.30;;;;;;;;;;5109602;27;20824;-68
2021/01/08 09:57:56;;;;;;;29.50;17.17;;;;;;;;;;5107119;27;20462;-67
2021/01/08 10:00:32;;;;;;;31.10;17.40;;;;;;;;;;5111889;27;20443;-67
2021/01/08 10:03:00;;;;;;;29.53;18.43;;;;;;;;;;5100332;27;20475;-67
2021/01/08 10:05:30;;;;;;;25.43;16.20;;;;;;;;;;5109391;28;20447;-67
2021/01/08 10:07:57;;;;;;;31.33;18.23;;;;;;;;;;5110579;27;20846;-68
2021/01/08 10:10:38;;;;;;;37.30;20.30;;;;;;;;;;5107352;27;20458;-68
2021/01/08 10:13:07;;;;;;;27.77;15.97;;;;;;;;;;5110974;27;20435;-67
2021/01/08 10:15:38;;;;;;;26.53;15.70;;;;;;;;;;5105644;27;20462;-68
2021/01/08 10:18:09;;;;;;;30.03;17.70;;;;;;;;;;5112270;27;20588;-66
2021/01/08 10:20:42;;;;;;;33.50;19.30;;;;;;;;;;5100446;28;20463;-68
2021/01/08 10:23:11;;;;;;;29.30;16.67;;;;;;;;;;5103339;28;20987;-68
2021/01/08 10:25:37;;;;;;;31.53;17.03;;;;;;;;;;5112636;27;20455;-68
2021/01/08 10:28:14;;;;;;;30.10;16.63;;;;;;;;;;5106563;28;20463;-67
2021/01/08 10:30:41;;;;;;;32.73;16.13;;;;;;;;;;5105198;27;20459;-67
2021/01/08 10:33:09;;;;;;;24.20;14.77;;;;;;;;;;5109664;28;20454;-68
2021/01/08 10:35:36;;;;;;;29.23;16.00;;;;;;;;;;5102024;28;20471;-68
2021/01/08 10:38:03;;;;;;;26.00;16.00;;;;;;;;;;5108038;27;21002;-67
2021/01/08 10:40:29;;;;;;;27.50;15.97;;;;;;;;;;5101266;27;20455;-67
2021/01/08 10:42:56;;;;;;;23.97;16.13;;;;;;;;;;5108258;28;20479;-67
2021/01/08 10:45:22;;;;;;;27.37;14.53;;;;;;;;;;5101360;27;20649;-66
2021/01/08 10:47:49;;;;;;;24.27;14.40;;;;;;;;;;5111345;27;20524;-66
2021/01/08 10:50:16;;;;;;;22.00;14.23;;;;;;;;;;5099793;28;20470;-66
2021/01/08 10:52:44;;;;;;;25.60;15.03;;;;;;;;;;5108138;27;20455;-67
2021/01/08 10:55:11;;;;;;;25.97;14.53;;;;;;;;;;5101389;28;20560;-67
2021/01/08 10:57:37;;;;;;;23.87;13.70;;;;;;;;;;5106798;28;20501;-67
2021/01/08 11:00:05;;;;;;;23.83;14.73;;;;;;;;;;5099764;27;20516;-67
2021/01/08 11:02:32;;;;;;;21.90;14.30;;;;;;;;;;5105637;27;20488;-67
2021/01/08 11:04:58;;;;;;;21.97;12.83;;;;;;;;;;5104284;27;20444;-66
2021/01/08 11:07:26;;;;;;;20.60;11.77;;;;;;;;;;5106526;28;20483;-67
2021/01/08 11:09:52;;;;;;;21.63;13.47;;;;;;;;;;5100979;28;20451;-66
2021/01/08 11:12:19;;;;;;;29.33;13.87;;;;;;;;;;5106292;28;20461;-67
2021/01/08 11:14:46;;;;;;;21.23;13.43;;;;;;;;;;5105878;28;20459;-66
2021/01/08 11:17:12;;;;;;;20.23;13.13;;;;;;;;;;5102822;28;20471;-66
2021/01/08 11:19:39;;;;;;;17.83;13.37;;;;;;;;;;5102344;28;21003;-65
2021/01/08 11:22:05;;;;;;;18.93;11.03;;;;;;;;;;5099735;28;20525;-65
2021/01/08 11:24:33;;;;;;;18.87;10.80;;;;;;;;;;5107921;28;20534;-66
2021/01/08 11:26:59;;;;;;;19.87;12.90;;;;;;;;;;5101891;27;21012;-66
2021/01/08 11:29:26;;;;;;;18.97;11.90;;;;;;;;;;5107200;28;20519;-66
2021/01/08 11:31:52;;;;;;;19.63;12.60;;;;;;;;;;5107633;27;20451;-65
2021/01/08 11:34:19;;;;;;;16.80;11.67;;;;;;;;;;5105008;28;21236;-66
2021/01/08 11:36:46;;;;;;;19.33;11.67;;;;;;;;;;5097076;28;20482;-63
2021/01/08 11:39:14;;;;;;;14.80;10.77;;;;;;;;;;5106581;28;20443;-65
2021/01/08 11:41:41;;;;;;;18.33;10.63;;;;;;;;;;5104144;28;20491;-66
2021/01/08 11:44:08;;;;;;;15.67;11.27;;;;;;;;;;5100091;28;20456;-67
2021/01/08 11:46:34;;;;;;;18.90;11.63;;;;;;;;;;5107999;28;20455;-67
2021/01/08 11:49:01;;;;;;;18.20;11.60;;;;;;;;;;5112893;28;20512;-67
2021/01/08 11:51:28;;;;;;;16.63;10.80;;;;;;;;;;5106081;28;20443;-65
2021/01/08 11:53:54;;;;;;;15.37;10.60;;;;;;;;;;5114225;28;20447;-66
2021/01/08 11:56:27;;;;;;;15.90;11.10;;;;;;;;;;5111254;28;20455;-66
2021/01/08 11:58:54;;;;;;;17.17;11.57;;;;;;;;;;5107957;28;20470;-67
2021/01/08 12:01:23;;;;;;;15.40;9.23;;;;;;;;;;5106208;28;20471;-67
2021/01/08 12:03:50;;;;;;;18.77;11.03;;;;;;;;;;5109992;28;20506;-67
2021/01/08 12:06:17;;;;;;;15.90;9.70;;;;;;;;;;5105017;28;20943;-66
2021/01/08 12:08:44;;;;;;;17.30;9.67;;;;;;;;;;5102417;28;20548;-67
2021/01/08 12:11:14;;;;;;;17.60;12.37;;;;;;;;;;5105671;28;20956;-67
2021/01/08 12:13:42;;;;;;;18.10;10.17;;;;;;;;;;5102397;28;20879;-67
2021/01/08 12:16:09;;;;;;;18.60;10.63;;;;;;;;;;5108615;28;20443;-67
2021/01/08 12:18:36;;;;;;;18.50;11.53;;;;;;;;;;5104401;28;20493;-65
2021/01/08 12:21:02;;;;;;;23.90;14.13;;;;;;;;;;5097407;28;20466;-67
2021/01/08 12:23:29;;;;;;;19.60;11.93;;;;;;;;;;5104598;28;20467;-67
2021/01/08 12:25:55;;;;;;;17.23;11.80;;;;;;;;;;5102068;28;20506;-67
2021/01/08 12:28:22;;;;;;;16.77;11.80;;;;;;;;;;5102258;28;20839;-66
2021/01/08 12:30:49;;;;;;;17.43;10.97;;;;;;;;;;5106338;28;20478;-67
2021/01/08 12:33:16;;;;;;;18.07;12.23;;;;;;;;;;5108889;28;20467;-67
2021/01/08 12:35:43;;;;;;;15.90;10.97;;;;;;;;;;5106933;27;20471;-67
2021/01/08 12:38:09;;;;;;;16.07;11.67;;;;;;;;;;5107658;27;20481;-66
2021/01/08 12:40:36;;;;;;;17.57;11.50;;;;;;;;;;5103965;28;20460;-67
2021/01/08 12:43:02;;;;;;;17.90;9.70;;;;;;;;;;5106728;27;20482;-67
2021/01/08 12:45:29;;;;;;;17.83;10.07;;;;;;;;;;5103090;27;20455;-67
2021/01/08 12:47:56;;;;;;;18.00;11.30;;;;;;;;;;5106636;28;20468;-67
2021/01/08 12:50:23;;;;;;;19.23;11.03;;;;;;;;;;5106355;28;20459;-67
2021/01/08 12:52:50;;;;;;;18.60;11.47;;;;;;;;;;5106252;27;20459;-67
2021/01/08 12:55:16;;;;;;;15.83;10.40;;;;;;;;;;5110697;27;20470;-66
2021/01/08 12:57:44;;;;;;;20.00;10.63;;;;;;;;;;5112029;27;21009;-67
2021/01/08 13:00:13;;;;;;;18.80;11.20;;;;;;;;;;5108060;28;20526;-67
2021/01/08 13:02:39;;;;;;;14.73;10.23;;;;;;;;;;5117495;27;20570;-67
2021/01/08 13:05:06;;;;;;;16.20;11.27;;;;;;;;;;5108096;28;20446;-66
2021/01/08 13:07:34;;;;;;;17.33;10.43;;;;;;;;;;5109266;27;20994;-67
2021/01/08 13:10:00;;;;;;;16.30;11.67;;;;;;;;;;5119507;27;20443;-67
2021/01/08 13:12:27;;;;;;;18.10;11.60;;;;;;;;;;5111462;27;20455;-67
2021/01/08 13:14:53;;;;;;;20.77;12.70;;;;;;;;;;5105138;28;20814;-67
2021/01/08 13:17:20;;;;;;;16.90;10.40;;;;;;;;;;5101805;27;20506;-66
2021/01/08 13:19:47;;;;;;;16.57;10.77;;;;;;;;;;5107774;27;20452;-67
2021/01/08 13:22:13;;;;;;;16.77;11.20;;;;;;;;;;5103963;27;20475;-67
2021/01/08 13:24:41;;;;;;;18.73;11.10;;;;;;;;;;5108379;28;20443;-67
2021/01/08 13:27:07;;;;;;;14.90;9.83;;;;;;;;;;5106163;27;20483;-67
2021/01/08 13:29:34;;;;;;;14.23;9.33;;;;;;;;;;5114572;27;20439;-68
2021/01/08 13:32:00;;;;;;;14.13;8.70;;;;;;;;;;5105782;27;20460;-68
2021/01/08 13:34:27;;;;;;;16.03;10.13;;;;;;;;;;5099599;27;20994;-68
2021/01/08 13:36:54;;;;;;;12.30;9.40;;;;;;;;;;5100566;27;20741;-66
2021/01/08 13:39:22;;;;;;;15.00;10.37;;;;;;;;;;5109682;27;20955;-67
2021/01/08 13:42:00;;;;;;;18.03;9.60;;;;;;;;;;5106519;28;20466;-67
2021/01/08 13:44:27;;;;;;;22.07;11.07;;;;;;;;;;5108236;28;20446;-67
2021/01/08 13:46:54;;;;;;;19.17;12.40;;;;;;;;;;5108456;27;20447;-67
2021/01/08 13:49:20;;;;;;;16.03;10.30;;;;;;;;;;5108664;28;20454;-68
2021/01/08 13:51:47;;;;;;;14.87;11.33;;;;;;;;;;5104413;27;20463;-67
2021/01/08 13:54:13;;;;;;;18.77;12.30;;;;;;;;;;5105713;27;20459;-67
2021/01/08 13:56:40;;;;;;;22.13;12.57;;;;;;;;;;5108442;28;20447;-67
2021/01/08 13:59:07;;;;;;;16.33;9.50;;;;;;;;;;5103203;28;20845;-67
2021/01/08 14:01:37;;;;;;;14.33;9.30;;;;;;;;;;5115038;27;20474;-68
2021/01/08 14:04:04;;;;;;;17.07;11.13;;;;;;;;;;5101021;27;20455;-68
2021/01/08 14:06:31;;;;;;;16.80;10.43;;;;;;;;;;5104941;28;20456;-68
2021/01/08 14:08:57;;;;;;;16.97;11.10;;;;;;;;;;5104210;27;21253;-67
2021/01/08 14:11:25;;;;;;;14.00;10.00;;;;;;;;;;5111576;27;20939;-69
2021/01/08 14:13:51;;;;;;;13.93;9.70;;;;;;;;;;5103613;27;20460;-68
2021/01/08 14:16:19;;;;;;;19.20;10.03;;;;;;;;;;5107109;27;20443;-68
2021/01/08 14:18:46;;;;;;;15.47;10.87;;;;;;;;;;5108773;28;20562;-67
2021/01/08 14:21:12;;;;;;;15.30;9.73;;;;;;;;;;5101653;27;20984;-68
2021/01/08 14:23:39;;;;;;;19.20;10.90;;;;;;;;;;5107352;28;20443;-68